createdAt,value
2018-10-03T00:01:43.831Z,12.23
2018-10-03T00:05:06.270Z,13.03
2018-10-03T00:08:28.865Z,12.73
2018-10-03T00:11:51.381Z,12.37
2018-10-03T00:15:13.948Z,12.90
2018-10-03T00:18:36.497Z,11.73
2018-10-03T00:21:59.211Z,12.77
2018-10-03T00:25:22.034Z,12.40
2018-10-03T00:28:45.015Z,12.13
2018-10-03T00:32:07.898Z,11.43
2018-10-03T00:35:30.715Z,11.90
2018-10-03T00:38:53.656Z,11.73
2018-10-03T00:42:16.423Z,12.40
2018-10-03T00:45:39.177Z,12.10
2018-10-03T00:49:02.014Z,12.73
2018-10-03T00:52:24.487Z,13.37
2018-10-03T00:55:46.992Z,11.93
2018-10-03T00:59:09.698Z,12.17
2018-10-03T01:02:32.510Z,11.60
2018-10-03T01:05:56.281Z,11.80
2018-10-03T01:09:19.036Z,11.60
2018-10-03T01:12:42.845Z,10.80
2018-10-03T01:17:08.728Z,11.67
2018-10-03T01:20:31.661Z,11.10
2018-10-03T01:23:54.393Z,12.00
2018-10-03T01:27:17.163Z,11.93
2018-10-03T01:30:39.938Z,10.97
2018-10-03T01:34:02.909Z,11.03
2018-10-03T01:37:26.129Z,11.80
2018-10-03T01:40:49.815Z,11.83
2018-10-03T01:44:13.662Z,12.27
2018-10-03T01:47:36.465Z,12.70
2018-10-03T01:51:00.173Z,11.80
2018-10-03T01:54:22.910Z,12.03
2018-10-03T01:57:46.682Z,12.33
2018-10-03T02:01:09.561Z,13.27
2018-10-03T02:04:32.129Z,12.83
2018-10-03T02:07:54.876Z,12.37
2018-10-03T02:11:18.320Z,12.10
2018-10-03T02:14:42.735Z,11.83
2018-10-03T02:18:05.453Z,12.87
2018-10-03T02:21:28.445Z,11.90
2018-10-03T02:24:51.316Z,12.30
2018-10-03T02:28:14.169Z,12.87
2018-10-03T02:31:37.132Z,12.13
2018-10-03T02:35:00.049Z,12.87
2018-10-03T02:42:16.682Z,11.47
2018-10-03T02:45:39.521Z,11.80
2018-10-03T02:53:28.213Z,11.43
2018-10-03T02:56:50.965Z,10.27
2018-10-03T03:00:13.765Z,10.10
2018-10-03T03:03:36.547Z,9.23
2018-10-03T03:06:59.300Z,8.93
2018-10-03T03:10:22.699Z,9.10
2018-10-03T03:14:48.339Z,8.97
2018-10-03T03:18:11.231Z,10.00
2018-10-03T03:21:34.056Z,8.57
2018-10-03T03:24:56.900Z,9.10
2018-10-03T03:28:19.531Z,9.00
2018-10-03T03:31:42.264Z,10.20
2018-10-03T03:35:05.075Z,9.73
2018-10-03T03:38:27.784Z,10.20
2018-10-03T03:46:16.456Z,11.47
2018-10-03T03:49:39.288Z,11.97
2018-10-03T03:53:02.004Z,12.30
2018-10-03T03:56:24.745Z,13.00
2018-10-03T03:59:47.531Z,13.80
2018-10-03T04:03:10.315Z,11.93
2018-10-03T04:06:33.040Z,11.30
2018-10-03T04:09:55.640Z,10.57
2018-10-03T04:13:18.401Z,10.20
2018-10-03T04:16:41.083Z,10.03
2018-10-03T04:20:03.872Z,9.73
2018-10-03T04:23:26.594Z,8.77
2018-10-03T04:26:49.307Z,10.53
2018-10-03T04:30:11.865Z,10.17
2018-10-03T04:33:34.524Z,10.67
2018-10-03T04:36:57.066Z,11.63
2018-10-03T04:40:19.545Z,11.60
2018-10-03T04:43:42.058Z,10.63
2018-10-03T04:47:04.732Z,10.93
2018-10-03T04:50:27.581Z,11.63
2018-10-03T04:58:15.867Z,11.60
2018-10-03T05:01:38.237Z,10.90
2018-10-03T05:05:00.634Z,10.93
2018-10-03T05:08:23.084Z,9.97
2018-10-03T05:11:45.679Z,10.67
2018-10-03T05:15:09.187Z,9.77
2018-10-03T05:18:31.855Z,9.10
2018-10-03T05:21:54.672Z,8.37
2018-10-03T05:25:17.554Z,8.23
2018-10-03T05:28:40.283Z,8.17
2018-10-03T05:32:03.051Z,8.10
2018-10-03T05:35:25.746Z,8.40
2018-10-03T05:38:51.360Z,8.83
2018-10-03T05:42:44.741Z,8.77
2018-10-03T05:46:07.364Z,9.17
2018-10-03T05:49:30.172Z,9.73
2018-10-03T05:52:52.902Z,8.37
2018-10-03T05:56:15.833Z,10.93
2018-10-03T05:59:38.579Z,8.83
2018-10-03T06:03:01.329Z,8.00
2018-10-03T06:06:24.095Z,10.90
2018-10-03T06:09:46.960Z,8.30
2018-10-03T06:13:09.484Z,9.00
2018-10-03T06:16:32.091Z,10.10
2018-10-03T06:19:54.786Z,8.00
2018-10-03T06:23:17.596Z,7.33
2018-10-03T06:26:47.157Z,8.00
2018-10-03T06:30:10.063Z,7.90
2018-10-03T06:33:47.605Z,6.90
2018-10-03T06:37:10.481Z,7.50
2018-10-03T06:40:33.355Z,7.63
2018-10-03T06:43:55.860Z,7.03
2018-10-03T06:47:18.545Z,6.97
2018-10-03T06:50:41.142Z,6.20
2018-10-03T06:54:03.849Z,6.60
2018-10-03T06:57:26.567Z,7.10
2018-10-03T07:00:49.246Z,8.17
2018-10-03T07:05:15.007Z,7.03
2018-10-03T07:08:38.531Z,7.40
2018-10-03T07:12:02.063Z,6.90
2018-10-03T07:15:24.489Z,6.47
2018-10-03T07:18:46.932Z,7.53
2018-10-03T07:22:11.305Z,7.03
2018-10-03T07:25:33.692Z,6.93
2018-10-03T07:28:56.055Z,6.97
2018-10-03T07:32:18.655Z,6.87
2018-10-03T07:35:41.111Z,44.20
2018-10-03T07:39:05.041Z,6.90
2018-10-03T07:42:27.630Z,6.50
2018-10-03T07:45:50.128Z,6.50
2018-10-03T07:49:12.500Z,7.90
2018-10-03T07:52:35.014Z,6.00
2018-10-03T07:55:57.429Z,6.40
2018-10-03T07:59:19.844Z,5.47
2018-10-03T08:02:42.272Z,5.77
2018-10-03T08:06:04.650Z,5.10
2018-10-03T08:09:27.029Z,30.37
2018-10-03T08:12:49.394Z,5.40
2018-10-03T08:16:11.769Z,4.63
2018-10-03T08:19:34.179Z,13.40
2018-10-03T08:22:56.554Z,5.60
2018-10-03T08:26:19.006Z,4.50
2018-10-03T08:29:42.436Z,4.43
2018-10-03T08:33:04.936Z,4.50
2018-10-03T08:36:27.357Z,4.43
2018-10-03T08:39:49.825Z,5.27
2018-10-03T08:43:12.189Z,3.63
2018-10-03T08:46:35.644Z,3.70
2018-10-03T08:49:59.044Z,3.77
2018-10-03T08:53:21.579Z,3.43
2018-10-03T08:56:44.029Z,3.60
2018-10-03T09:00:06.880Z,3.97
2018-10-03T09:03:31.563Z,4.13
2018-10-03T09:06:54.261Z,4.17
2018-10-03T09:10:16.920Z,3.73
2018-10-03T09:13:41.572Z,2.70
2018-10-03T09:17:06.321Z,3.90
2018-10-03T09:20:30.071Z,3.50
2018-10-03T09:23:53.888Z,3.50
2018-10-03T09:27:20.938Z,2.87
2018-10-03T09:30:43.690Z,2.87
2018-10-03T09:34:06.497Z,2.67
2018-10-03T09:37:31.336Z,2.70
2018-10-03T09:40:54.163Z,3.20
2018-10-03T09:44:18.013Z,3.03
2018-10-03T09:47:42.058Z,3.67
2018-10-03T09:51:05.060Z,3.90
2018-10-03T09:54:28.899Z,2.90
2018-10-03T09:57:51.858Z,3.23
2018-10-03T10:01:19.119Z,3.63
2018-10-03T10:04:41.860Z,3.40
2018-10-03T10:08:04.691Z,1.93
2018-10-03T10:11:27.585Z,2.90
2018-10-03T10:14:50.321Z,2.50
2018-10-03T10:18:13.242Z,3.07
2018-10-03T10:21:36.001Z,3.33
2018-10-03T10:24:58.503Z,2.33
2018-10-03T10:28:21.050Z,2.23
2018-10-03T10:31:43.823Z,2.17
2018-10-03T10:35:06.698Z,1.87
2018-10-03T10:38:29.497Z,2.60
2018-10-03T10:41:52.258Z,2.20
2018-10-03T10:45:15.422Z,2.23
2018-10-03T10:48:38.213Z,2.17
2018-10-03T10:52:02.412Z,2.37
2018-10-03T10:55:24.812Z,1.90
2018-10-03T10:58:48.337Z,2.07
2018-10-03T11:02:10.869Z,2.67
2018-10-03T11:09:26.991Z,2.20
2018-10-03T11:12:49.510Z,1.83
2018-10-03T11:16:12.151Z,2.50
2018-10-03T11:19:34.692Z,2.33
2018-10-03T11:22:57.117Z,2.83
2018-10-03T11:26:19.739Z,2.63
2018-10-03T11:29:42.285Z,2.57
2018-10-03T11:33:04.965Z,2.63
2018-10-03T11:37:31.793Z,3.00
2018-10-03T11:40:55.725Z,2.47
2018-10-03T11:44:18.533Z,2.40
2018-10-03T11:47:42.393Z,2.13
2018-10-03T11:51:04.872Z,2.30
2018-10-03T11:54:27.292Z,2.63
2018-10-03T11:57:49.723Z,3.10
2018-10-03T12:01:12.273Z,3.00
2018-10-03T12:04:34.728Z,3.73
2018-10-03T12:07:57.226Z,2.87
2018-10-03T12:11:19.826Z,2.70
2018-10-03T12:14:43.340Z,2.73
2018-10-03T12:18:05.969Z,3.50
2018-10-03T12:21:28.760Z,3.73
2018-10-03T12:24:51.413Z,3.47
2018-10-03T12:28:14.144Z,3.57
2018-10-03T12:31:36.917Z,3.07
2018-10-03T12:34:59.758Z,1.97
2018-10-03T12:38:22.519Z,2.10
2018-10-03T12:41:45.368Z,2.57
2018-10-03T12:45:08.106Z,2.23
2018-10-03T12:48:30.863Z,2.23
2018-10-03T12:51:53.573Z,1.80
2018-10-03T12:55:17.049Z,2.10
2018-10-03T12:58:39.665Z,2.07
2018-10-03T13:02:02.152Z,3.23
2018-10-03T13:05:24.859Z,2.97
2018-10-03T13:08:47.545Z,2.53
2018-10-03T13:12:11.093Z,1.93
2018-10-03T13:15:34.766Z,2.40
2018-10-03T13:18:57.466Z,1.83
2018-10-03T13:22:20.333Z,1.47
2018-10-03T13:25:43.000Z,2.43
2018-10-03T13:29:05.538Z,1.90
2018-10-03T13:32:28.017Z,4.53
2018-10-03T13:35:50.706Z,3.07
2018-10-03T13:39:13.266Z,2.80
2018-10-03T13:42:36.015Z,2.97
2018-10-03T13:45:58.935Z,2.50
2018-10-03T13:49:22.620Z,1.63
2018-10-03T13:52:45.424Z,2.60
2018-10-03T13:56:08.474Z,2.00
2018-10-03T13:59:31.418Z,1.90
2018-10-03T14:02:54.296Z,1.90
2018-10-03T14:06:18.334Z,1.97
2018-10-03T14:09:41.193Z,2.20
2018-10-03T14:13:34.740Z,2.10
2018-10-03T14:16:57.600Z,5.30
2018-10-03T14:20:20.402Z,2.03
2018-10-03T14:23:43.969Z,2.57
2018-10-03T14:27:06.690Z,3.63
2018-10-03T14:30:30.636Z,2.40
2018-10-03T14:33:53.106Z,2.30
2018-10-03T14:37:15.679Z,2.47
2018-10-03T14:40:38.434Z,2.53
2018-10-03T14:44:02.219Z,1.80
2018-10-03T14:47:25.069Z,2.27
2018-10-03T14:50:48.887Z,4.00
2018-10-03T14:54:11.847Z,2.33
2018-10-03T14:57:34.601Z,1.80
2018-10-03T15:00:58.439Z,2.00
2018-10-03T15:04:20.896Z,1.77
2018-10-03T15:07:43.458Z,2.50
2018-10-03T15:11:06.411Z,1.73
2018-10-03T15:14:29.114Z,2.30
2018-10-03T15:17:51.970Z,2.53
2018-10-03T15:21:14.677Z,2.07
2018-10-03T15:24:37.527Z,2.53
2018-10-03T15:28:00.376Z,2.80
2018-10-03T15:31:24.001Z,2.70
2018-10-03T15:34:46.696Z,2.57
2018-10-03T15:38:09.562Z,2.67
2018-10-03T15:41:32.467Z,2.70
2018-10-03T15:44:55.000Z,2.03
2018-10-03T15:48:17.791Z,2.27
2018-10-03T15:51:41.469Z,2.43
2018-10-03T15:55:04.520Z,2.50
2018-10-03T15:58:27.337Z,2.57
2018-10-03T16:01:50.222Z,2.73
2018-10-03T16:05:13.151Z,2.37
2018-10-03T16:08:36.069Z,1.83
2018-10-03T16:11:59.097Z,2.27
2018-10-03T16:15:22.101Z,1.67
2018-10-03T16:18:45.590Z,2.17
2018-10-03T16:22:08.541Z,2.30
2018-10-03T16:25:31.478Z,3.37
2018-10-03T16:28:54.407Z,1.93
2018-10-03T16:32:17.256Z,2.50
2018-10-03T16:35:40.092Z,2.40
2018-10-03T16:39:04.285Z,2.70
2018-10-03T16:43:29.767Z,2.00
2018-10-03T16:46:52.494Z,3.00
2018-10-03T16:50:15.195Z,3.03
2018-10-03T16:53:37.950Z,2.40
2018-10-03T16:57:00.649Z,2.40
2018-10-03T17:00:23.322Z,3.73
2018-10-03T17:03:45.944Z,2.40
2018-10-03T17:07:08.649Z,2.00
2018-10-03T17:10:31.421Z,2.73
2018-10-03T17:14:33.501Z,4.97
2018-10-03T17:17:57.296Z,2.73
2018-10-03T17:21:20.142Z,3.97
2018-10-03T17:24:43.790Z,2.93
2018-10-03T17:28:06.529Z,4.70
2018-10-03T17:31:29.701Z,3.73
2018-10-03T17:34:52.482Z,3.57
2018-10-03T17:38:15.157Z,5.07
2018-10-03T17:41:38.004Z,3.10
2018-10-03T17:45:00.804Z,9.10
2018-10-03T17:48:23.688Z,7.10
2018-10-03T17:51:49.594Z,4.50
2018-10-03T17:55:13.180Z,5.00
2018-10-03T17:58:35.742Z,4.87
2018-10-03T18:02:01.928Z,5.67
2018-10-03T18:05:25.439Z,4.30
2018-10-03T18:08:47.911Z,5.00
2018-10-03T18:12:10.416Z,4.33
2018-10-03T18:15:32.962Z,3.13
2018-10-03T18:18:55.574Z,5.03
2018-10-03T18:22:18.232Z,4.17
2018-10-03T18:25:40.969Z,2.77
2018-10-03T18:29:03.633Z,4.40
2018-10-03T18:32:26.406Z,3.57
2018-10-03T18:35:49.122Z,4.40
2018-10-03T18:39:11.888Z,4.87
2018-10-03T18:42:34.519Z,3.63
2018-10-03T18:45:57.244Z,4.30
2018-10-03T18:49:19.906Z,4.67
2018-10-03T18:52:42.731Z,2.87
2018-10-03T18:56:05.349Z,3.97
2018-10-03T18:59:31.099Z,3.90
2018-10-03T19:02:53.826Z,5.90
2018-10-03T19:06:16.622Z,4.10
2018-10-03T19:09:39.253Z,4.57
2018-10-03T19:13:02.918Z,4.17
2018-10-03T19:16:25.295Z,3.77
2018-10-03T19:19:47.783Z,3.57
2018-10-03T19:23:10.277Z,3.70
2018-10-03T19:26:32.788Z,3.63
2018-10-03T19:33:50.249Z,3.97
2018-10-03T19:37:13.392Z,8.50
2018-10-03T19:42:44.696Z,9.97
2018-10-03T19:46:07.911Z,5.50
2018-10-03T19:57:05.420Z,5.40
2018-10-03T20:00:28.447Z,7.27
2018-10-03T20:03:51.266Z,4.50
2018-10-03T20:07:14.408Z,8.20
2018-10-03T20:10:42.888Z,7.03
2018-10-03T20:14:20.823Z,5.33
2018-10-03T20:21:41.460Z,5.03
2018-10-03T20:25:07.093Z,5.03
2018-10-03T20:41:13.992Z,7.03
2018-10-03T20:44:45.428Z,10.33
2018-10-03T20:48:17.211Z,11.50
2018-10-03T20:57:50.193Z,6.30
2018-10-03T21:05:12.465Z,3.27
2018-10-03T21:08:59.609Z,3.10
2018-10-03T21:12:29.808Z,5.07
2018-10-03T21:15:58.745Z,4.27
2018-10-03T21:19:38.620Z,4.30
2018-10-03T21:26:58.160Z,3.70
2018-10-03T21:30:29.979Z,3.30
2018-10-03T21:33:52.908Z,5.73
2018-10-03T21:37:15.812Z,5.07
2018-10-03T21:40:38.584Z,4.90
2018-10-03T21:44:02.381Z,5.47
2018-10-03T21:47:27.252Z,5.13
2018-10-03T21:50:50.098Z,4.90
2018-10-03T21:54:12.897Z,5.67
2018-10-03T21:57:39.147Z,4.43
2018-10-03T22:01:03.989Z,7.10
2018-10-03T22:04:26.690Z,4.83
2018-10-03T22:07:49.621Z,6.17
2018-10-03T22:11:12.500Z,6.30
2018-10-03T22:14:35.387Z,5.30
2018-10-03T22:17:59.267Z,6.67
2018-10-03T22:21:23.071Z,4.80
2018-10-03T22:24:46.056Z,4.10
2018-10-03T22:28:09.001Z,5.47
2018-10-03T22:31:32.438Z,5.10
2018-10-03T22:34:55.314Z,6.07
2018-10-03T22:38:18.231Z,5.43
2018-10-03T22:41:41.025Z,6.27
2018-10-03T22:45:03.916Z,6.10
2018-10-03T22:48:26.712Z,5.27
2018-10-03T22:53:19.130Z,5.60
2018-10-03T22:56:41.867Z,5.50
2018-10-03T23:00:05.374Z,4.90
2018-10-03T23:03:28.303Z,4.63
2018-10-03T23:06:51.206Z,4.13
2018-10-03T23:10:14.100Z,4.63
2018-10-03T23:13:37.054Z,4.30
2018-10-03T23:16:59.910Z,5.10
2018-10-03T23:20:23.688Z,5.10
2018-10-03T23:23:46.536Z,5.30
2018-10-03T23:27:09.379Z,4.30
2018-10-03T23:30:32.368Z,4.90
2018-10-03T23:33:55.301Z,6.20
2018-10-03T23:37:18.071Z,4.70
2018-10-03T23:40:41.180Z,5.03
2018-10-03T23:44:04.083Z,5.50
2018-10-03T23:47:28.049Z,5.13
2018-10-03T23:50:50.713Z,5.90
2018-10-03T23:54:14.367Z,5.73
2018-10-03T23:57:40.329Z,5.70
